sensor_id;sensor_type;location;lat;lon;timestamp;P1;durP1;ratioP1;P2;durP2;ratioP2
2023;SDS011;1016;48.770;9.154;2023-03-21T00:00:36;20.47;;;3.33;;
2023;SDS011;1016;48.770;9.154;2023-03-21T00:03:02;19.50;;;3.50;;
2023;SDS011;1016;48.770;9.154;2023-03-21T00:05:28;19.27;;;3.37;;
2023;SDS011;1016;48.770;9.154;2023-03-21T00:07:53;21.20;;;3.33;;
2023;SDS011;1016;48.770;9.154;2023-03-21T00:10:19;19.30;;;3.00;;
2023;SDS011;1016;48.770;9.154;2023-03-21T00:12:45;17.70;;;2.70;;
2023;SDS011;1016;48.770;9.154;2023-03-21T00:15:14;19.67;;;2.73;;
2023;SDS011;1016;48.770;9.154;2023-03-21T00:17:42;19.17;;;2.77;;
2023;SDS011;1016;48.770;9.154;2023-03-21T00:20:08;17.73;;;2.70;;
2023;SDS011;1016;48.770;9.154;2023-03-21T00:22:40;18.50;;;2.90;;
2023;SDS011;1016;48.770;9.154;2023-03-21T00:25:06;17.90;;;2.73;;
2023;SDS011;1016;48.770;9.154;2023-03-21T00:27:33;19.60;;;3.30;;
2023;SDS011;1016;48.770;9.154;2023-03-21T00:29:59;17.50;;;3.00;;
2023;SDS011;1016;48.770;9.154;2023-03-21T00:32:24;18.77;;;3.57;;
2023;SDS011;1016;48.770;9.154;2023-03-21T00:34:50;18.27;;;3.37;;
2023;SDS011;1016;48.770;9.154;2023-03-21T00:37:16;18.53;;;3.33;;
2023;SDS011;1016;48.770;9.154;2023-03-21T00:39:42;18.60;;;3.30;;
2023;SDS011;1016;48.770;9.154;2023-03-21T00:42:12;18.93;;;3.40;;
2023;SDS011;1016;48.770;9.154;2023-03-21T00:44:37;18.00;;;2.90;;
2023;SDS011;1016;48.770;9.154;2023-03-21T00:47:04;17.80;;;2.90;;
2023;SDS011;1016;48.770;9.154;2023-03-21T00:49:31;19.37;;;3.10;;
2023;SDS011;1016;48.770;9.154;2023-03-21T00:52:01;18.70;;;3.17;;
2023;SDS011;1016;48.770;9.154;2023-03-21T00:54:28;20.10;;;2.80;;
2023;SDS011;1016;48.770;9.154;2023-03-21T00:56:54;18.00;;;2.90;;
2023;SDS011;1016;48.770;9.154;2023-03-21T00:59:20;18.57;;;2.90;;
2023;SDS011;1016;48.770;9.154;2023-03-21T01:01:45;18.77;;;3.20;;
2023;SDS011;1016;48.770;9.154;2023-03-21T01:04:11;17.93;;;2.70;;
2023;SDS011;1016;48.770;9.154;2023-03-21T01:06:41;17.33;;;2.70;;
2023;SDS011;1016;48.770;9.154;2023-03-21T01:09:15;18.67;;;3.20;;
2023;SDS011;1016;48.770;9.154;2023-03-21T01:11:42;17.70;;;2.47;;
2023;SDS011;1016;48.770;9.154;2023-03-21T01:14:08;18.47;;;3.10;;
2023;SDS011;1016;48.770;9.154;2023-03-21T01:16:34;18.97;;;3.20;;
2023;SDS011;1016;48.770;9.154;2023-03-21T01:19:00;19.00;;;3.00;;
2023;SDS011;1016;48.770;9.154;2023-03-21T01:21:26;17.97;;;2.90;;
2023;SDS011;1016;48.770;9.154;2023-03-21T01:23:52;18.13;;;2.90;;
2023;SDS011;1016;48.770;9.154;2023-03-21T01:26:17;17.47;;;2.87;;
2023;SDS011;1016;48.770;9.154;2023-03-21T01:28:43;18.40;;;3.23;;
2023;SDS011;1016;48.770;9.154;2023-03-21T01:31:13;17.90;;;2.53;;
2023;SDS011;1016;48.770;9.154;2023-03-21T01:33:40;18.33;;;3.07;;
2023;SDS011;1016;48.770;9.154;2023-03-21T01:36:07;17.47;;;2.57;;
2023;SDS011;1016;48.770;9.154;2023-03-21T01:38:39;17.80;;;2.90;;
2023;SDS011;1016;48.770;9.154;2023-03-21T01:41:05;17.50;;;2.63;;
2023;SDS011;1016;48.770;9.154;2023-03-21T01:43:34;18.37;;;2.90;;
2023;SDS011;1016;48.770;9.154;2023-03-21T01:49:23;18.03;;;2.73;;
2023;SDS011;1016;48.770;9.154;2023-03-21T01:51:55;17.97;;;3.00;;
2023;SDS011;1016;48.770;9.154;2023-03-21T01:54:29;20.50;;;2.90;;
2023;SDS011;1016;48.770;9.154;2023-03-21T01:57:01;18.20;;;3.20;;
2023;SDS011;1016;48.770;9.154;2023-03-21T01:59:47;18.33;;;3.10;;
2023;SDS011;1016;48.770;9.154;2023-03-21T02:02:16;17.87;;;2.80;;
2023;SDS011;1016;48.770;9.154;2023-03-21T02:04:47;18.40;;;3.00;;
2023;SDS011;1016;48.770;9.154;2023-03-21T02:07:14;18.80;;;2.57;;
2023;SDS011;1016;48.770;9.154;2023-03-21T02:09:46;18.40;;;2.77;;
2023;SDS011;1016;48.770;9.154;2023-03-21T02:12:14;18.20;;;2.70;;
2023;SDS011;1016;48.770;9.154;2023-03-21T02:14:40;18.70;;;2.80;;
2023;SDS011;1016;48.770;9.154;2023-03-21T02:22:44;18.07;;;3.30;;
2023;SDS011;1016;48.770;9.154;2023-03-21T02:28:43;18.30;;;2.90;;
2023;SDS011;1016;48.770;9.154;2023-03-21T02:33:49;18.40;;;3.40;;
2023;SDS011;1016;48.770;9.154;2023-03-21T02:36:26;18.60;;;3.23;;
2023;SDS011;1016;48.770;9.154;2023-03-21T02:41:43;19.73;;;3.67;;
2023;SDS011;1016;48.770;9.154;2023-03-21T02:46:57;19.13;;;3.23;;
2023;SDS011;1016;48.770;9.154;2023-03-21T02:52:34;19.20;;;3.43;;
2023;SDS011;1016;48.770;9.154;2023-03-21T02:55:01;18.90;;;3.67;;
2023;SDS011;1016;48.770;9.154;2023-03-21T02:57:28;19.17;;;3.80;;
2023;SDS011;1016;48.770;9.154;2023-03-21T02:59:54;18.60;;;3.80;;
2023;SDS011;1016;48.770;9.154;2023-03-21T03:02:21;18.10;;;3.50;;
2023;SDS011;1016;48.770;9.154;2023-03-21T03:04:52;21.27;;;4.30;;
2023;SDS011;1016;48.770;9.154;2023-03-21T03:07:38;19.77;;;4.60;;
2023;SDS011;1016;48.770;9.154;2023-03-21T03:15:39;20.63;;;4.80;;
2023;SDS011;1016;48.770;9.154;2023-03-21T03:18:30;19.73;;;4.60;;
2023;SDS011;1016;48.770;9.154;2023-03-21T03:21:03;20.10;;;4.40;;
2023;SDS011;1016;48.770;9.154;2023-03-21T03:23:46;19.60;;;4.50;;
2023;SDS011;1016;48.770;9.154;2023-03-21T03:26:17;20.10;;;4.80;;
2023;SDS011;1016;48.770;9.154;2023-03-21T03:28:51;21.07;;;3.63;;
2023;SDS011;1016;48.770;9.154;2023-03-21T03:31:21;18.90;;;3.63;;
2023;SDS011;1016;48.770;9.154;2023-03-21T03:33:51;18.87;;;3.43;;
2023;SDS011;1016;48.770;9.154;2023-03-21T03:36:19;20.90;;;3.60;;
2023;SDS011;1016;48.770;9.154;2023-03-21T03:38:51;18.33;;;3.40;;
2023;SDS011;1016;48.770;9.154;2023-03-21T03:41:20;18.17;;;3.50;;
2023;SDS011;1016;48.770;9.154;2023-03-21T03:43:51;21.10;;;3.97;;
2023;SDS011;1016;48.770;9.154;2023-03-21T03:46:28;20.00;;;3.90;;
2023;SDS011;1016;48.770;9.154;2023-03-21T03:49:03;19.77;;;3.30;;
2023;SDS011;1016;48.770;9.154;2023-03-21T03:54:27;18.80;;;3.40;;
2023;SDS011;1016;48.770;9.154;2023-03-21T03:56:56;18.40;;;3.50;;
2023;SDS011;1016;48.770;9.154;2023-03-21T03:59:22;19.50;;;3.60;;
2023;SDS011;1016;48.770;9.154;2023-03-21T04:01:49;19.07;;;3.30;;
2023;SDS011;1016;48.770;9.154;2023-03-21T04:04:15;21.20;;;3.20;;
2023;SDS011;1016;48.770;9.154;2023-03-21T04:06:44;19.60;;;3.27;;
2023;SDS011;1016;48.770;9.154;2023-03-21T04:09:15;19.07;;;3.90;;
2023;SDS011;1016;48.770;9.154;2023-03-21T04:11:42;18.10;;;3.43;;
2023;SDS011;1016;48.770;9.154;2023-03-21T04:14:08;18.90;;;3.20;;
2023;SDS011;1016;48.770;9.154;2023-03-21T04:16:33;18.47;;;3.10;;
2023;SDS011;1016;48.770;9.154;2023-03-21T04:18:59;18.20;;;3.23;;
2023;SDS011;1016;48.770;9.154;2023-03-21T04:21:24;17.77;;;2.80;;
2023;SDS011;1016;48.770;9.154;2023-03-21T04:23:51;19.17;;;3.20;;
2023;SDS011;1016;48.770;9.154;2023-03-21T04:26:18;18.10;;;3.20;;
2023;SDS011;1016;48.770;9.154;2023-03-21T04:28:45;18.53;;;3.40;;
2023;SDS011;1016;48.770;9.154;2023-03-21T04:31:11;17.63;;;3.00;;
2023;SDS011;1016;48.770;9.154;2023-03-21T04:33:37;19.70;;;3.40;;
2023;SDS011;1016;48.770;9.154;2023-03-21T04:36:04;18.00;;;3.10;;
2023;SDS011;1016;48.770;9.154;2023-03-21T04:38:31;19.60;;;3.30;;
2023;SDS011;1016;48.770;9.154;2023-03-21T04:40:58;18.47;;;3.07;;
2023;SDS011;1016;48.770;9.154;2023-03-21T04:43:24;18.07;;;3.17;;
2023;SDS011;1016;48.770;9.154;2023-03-21T04:45:50;18.10;;;3.03;;
2023;SDS011;1016;48.770;9.154;2023-03-21T04:48:16;19.17;;;3.00;;
2023;SDS011;1016;48.770;9.154;2023-03-21T04:50:43;18.90;;;3.40;;
2023;SDS011;1016;48.770;9.154;2023-03-21T04:53:11;18.77;;;3.40;;
2023;SDS011;1016;48.770;9.154;2023-03-21T04:55:37;18.33;;;3.40;;
2023;SDS011;1016;48.770;9.154;2023-03-21T04:58:03;20.90;;;3.90;;
2023;SDS011;1016;48.770;9.154;2023-03-21T05:00:29;19.77;;;3.47;;
2023;SDS011;1016;48.770;9.154;2023-03-21T05:02:56;18.70;;;3.60;;
2023;SDS011;1016;48.770;9.154;2023-03-21T05:05:22;18.73;;;3.63;;
2023;SDS011;1016;48.770;9.154;2023-03-21T05:07:48;18.60;;;3.60;;
2023;SDS011;1016;48.770;9.154;2023-03-21T05:10:14;18.40;;;3.03;;
2023;SDS011;1016;48.770;9.154;2023-03-21T05:12:40;20.73;;;3.50;;
2023;SDS011;1016;48.770;9.154;2023-03-21T05:15:06;18.70;;;3.27;;
2023;SDS011;1016;48.770;9.154;2023-03-21T05:17:32;18.73;;;3.37;;
2023;SDS011;1016;48.770;9.154;2023-03-21T05:19:57;19.10;;;3.70;;
2023;SDS011;1016;48.770;9.154;2023-03-21T05:22:23;18.70;;;2.83;;
2023;SDS011;1016;48.770;9.154;2023-03-21T05:24:51;18.77;;;3.13;;
2023;SDS011;1016;48.770;9.154;2023-03-21T05:27:19;18.60;;;3.30;;
2023;SDS011;1016;48.770;9.154;2023-03-21T05:30:10;19.20;;;3.67;;
2023;SDS011;1016;48.770;9.154;2023-03-21T05:32:38;18.13;;;3.33;;
2023;SDS011;1016;48.770;9.154;2023-03-21T05:35:03;20.10;;;3.70;;
2023;SDS011;1016;48.770;9.154;2023-03-21T05:37:29;18.40;;;3.30;;
2023;SDS011;1016;48.770;9.154;2023-03-21T05:39:55;17.50;;;3.00;;
2023;SDS011;1016;48.770;9.154;2023-03-21T05:42:20;19.13;;;3.60;;
2023;SDS011;1016;48.770;9.154;2023-03-21T05:44:46;18.60;;;3.00;;
2023;SDS011;1016;48.770;9.154;2023-03-21T05:47:13;18.40;;;3.43;;
2023;SDS011;1016;48.770;9.154;2023-03-21T05:49:40;19.10;;;3.30;;
2023;SDS011;1016;48.770;9.154;2023-03-21T05:52:06;19.80;;;4.00;;
2023;SDS011;1016;48.770;9.154;2023-03-21T05:54:32;18.67;;;3.83;;
2023;SDS011;1016;48.770;9.154;2023-03-21T05:56:58;18.30;;;3.47;;
2023;SDS011;1016;48.770;9.154;2023-03-21T05:59:24;21.60;;;4.00;;
2023;SDS011;1016;48.770;9.154;2023-03-21T06:01:49;18.60;;;3.50;;
2023;SDS011;1016;48.770;9.154;2023-03-21T06:04:15;19.93;;;3.57;;
2023;SDS011;1016;48.770;9.154;2023-03-21T06:06:40;21.87;;;5.23;;
2023;SDS011;1016;48.770;9.154;2023-03-21T06:09:06;19.07;;;3.87;;
2023;SDS011;1016;48.770;9.154;2023-03-21T06:11:33;18.63;;;3.40;;
2023;SDS011;1016;48.770;9.154;2023-03-21T06:14:00;18.97;;;3.23;;
2023;SDS011;1016;48.770;9.154;2023-03-21T06:16:26;20.70;;;3.73;;
2023;SDS011;1016;48.770;9.154;2023-03-21T06:18:52;21.20;;;2.90;;
2023;SDS011;1016;48.770;9.154;2023-03-21T06:21:18;18.10;;;3.17;;
2023;SDS011;1016;48.770;9.154;2023-03-21T06:23:44;18.50;;;2.87;;
2023;SDS011;1016;48.770;9.154;2023-03-21T06:26:11;20.00;;;3.40;;
2023;SDS011;1016;48.770;9.154;2023-03-21T06:28:37;19.50;;;3.20;;
2023;SDS011;1016;48.770;9.154;2023-03-21T06:31:03;19.60;;;3.30;;
2023;SDS011;1016;48.770;9.154;2023-03-21T06:33:28;18.83;;;3.07;;
2023;SDS011;1016;48.770;9.154;2023-03-21T06:35:55;20.30;;;3.73;;
2023;SDS011;1016;48.770;9.154;2023-03-21T06:38:22;18.13;;;2.73;;
2023;SDS011;1016;48.770;9.154;2023-03-21T06:40:48;18.30;;;3.20;;
2023;SDS011;1016;48.770;9.154;2023-03-21T06:43:14;18.47;;;3.23;;
2023;SDS011;1016;48.770;9.154;2023-03-21T06:45:40;19.70;;;2.87;;
2023;SDS011;1016;48.770;9.154;2023-03-21T06:48:06;18.37;;;3.07;;
2023;SDS011;1016;48.770;9.154;2023-03-21T06:50:31;20.40;;;3.07;;
2023;SDS011;1016;48.770;9.154;2023-03-21T06:52:57;19.07;;;2.90;;
2023;SDS011;1016;48.770;9.154;2023-03-21T06:55:23;18.40;;;3.33;;
2023;SDS011;1016;48.770;9.154;2023-03-21T06:57:51;18.50;;;3.40;;
2023;SDS011;1016;48.770;9.154;2023-03-21T07:00:17;19.43;;;3.23;;
2023;SDS011;1016;48.770;9.154;2023-03-21T07:02:43;20.47;;;2.87;;
2023;SDS011;1016;48.770;9.154;2023-03-21T07:05:10;18.97;;;3.10;;
2023;SDS011;1016;48.770;9.154;2023-03-21T07:07:36;18.10;;;2.90;;
2023;SDS011;1016;48.770;9.154;2023-03-21T07:10:02;19.17;;;3.30;;
2023;SDS011;1016;48.770;9.154;2023-03-21T07:12:28;17.70;;;2.87;;
2023;SDS011;1016;48.770;9.154;2023-03-21T07:14:57;20.77;;;3.60;;
2023;SDS011;1016;48.770;9.154;2023-03-21T07:17:23;18.80;;;3.23;;
2023;SDS011;1016;48.770;9.154;2023-03-21T07:19:49;19.90;;;3.80;;
2023;SDS011;1016;48.770;9.154;2023-03-21T07:22:14;19.80;;;3.00;;
2023;SDS011;1016;48.770;9.154;2023-03-21T07:24:40;18.80;;;3.13;;
2023;SDS011;1016;48.770;9.154;2023-03-21T07:27:06;18.80;;;3.30;;
2023;SDS011;1016;48.770;9.154;2023-03-21T07:29:31;17.90;;;3.00;;
2023;SDS011;1016;48.770;9.154;2023-03-21T07:31:57;19.20;;;3.40;;
2023;SDS011;1016;48.770;9.154;2023-03-21T07:34:22;18.47;;;3.20;;
2023;SDS011;1016;48.770;9.154;2023-03-21T07:36:48;18.10;;;3.30;;
2023;SDS011;1016;48.770;9.154;2023-03-21T07:39:13;19.23;;;2.90;;
2023;SDS011;1016;48.770;9.154;2023-03-21T07:41:39;19.60;;;3.17;;
2023;SDS011;1016;48.770;9.154;2023-03-21T07:44:04;18.23;;;3.70;;
2023;SDS011;1016;48.770;9.154;2023-03-21T07:46:30;19.00;;;3.50;;
2023;SDS011;1016;48.770;9.154;2023-03-21T07:48:55;19.80;;;3.77;;
2023;SDS011;1016;48.770;9.154;2023-03-21T07:51:21;20.03;;;3.53;;
2023;SDS011;1016;48.770;9.154;2023-03-21T07:53:47;18.70;;;3.30;;
2023;SDS011;1016;48.770;9.154;2023-03-21T07:56:12;19.40;;;3.40;;
2023;SDS011;1016;48.770;9.154;2023-03-21T07:58:38;18.60;;;3.37;;
2023;SDS011;1016;48.770;9.154;2023-03-21T08:01:04;20.60;;;3.30;;
2023;SDS011;1016;48.770;9.154;2023-03-21T08:03:30;19.70;;;3.40;;
2023;SDS011;1016;48.770;9.154;2023-03-21T08:05:57;21.67;;;3.20;;
2023;SDS011;1016;48.770;9.154;2023-03-21T08:08:25;19.93;;;3.37;;
2023;SDS011;1016;48.770;9.154;2023-03-21T08:10:51;18.50;;;2.53;;
2023;SDS011;1016;48.770;9.154;2023-03-21T08:13:17;19.53;;;2.90;;
2023;SDS011;1016;48.770;9.154;2023-03-21T08:15:42;19.10;;;3.20;;
2023;SDS011;1016;48.770;9.154;2023-03-21T08:18:08;18.00;;;3.33;;
2023;SDS011;1016;48.770;9.154;2023-03-21T08:20:35;18.63;;;2.97;;
2023;SDS011;1016;48.770;9.154;2023-03-21T08:23:00;21.17;;;2.90;;
2023;SDS011;1016;48.770;9.154;2023-03-21T08:25:26;18.00;;;2.87;;
2023;SDS011;1016;48.770;9.154;2023-03-21T08:27:51;19.57;;;2.97;;
2023;SDS011;1016;48.770;9.154;2023-03-21T08:30:18;18.50;;;2.70;;
2023;SDS011;1016;48.770;9.154;2023-03-21T08:32:45;19.70;;;2.80;;
2023;SDS011;1016;48.770;9.154;2023-03-21T08:35:12;17.97;;;2.43;;
2023;SDS011;1016;48.770;9.154;2023-03-21T08:37:40;18.30;;;2.23;;
2023;SDS011;1016;48.770;9.154;2023-03-21T08:40:07;18.37;;;2.30;;
2023;SDS011;1016;48.770;9.154;2023-03-21T08:42:39;18.50;;;2.40;;
2023;SDS011;1016;48.770;9.154;2023-03-21T08:45:06;19.60;;;2.30;;
2023;SDS011;1016;48.770;9.154;2023-03-21T08:47:32;18.30;;;2.57;;
2023;SDS011;1016;48.770;9.154;2023-03-21T08:49:58;19.50;;;2.50;;
2023;SDS011;1016;48.770;9.154;2023-03-21T08:52:24;17.73;;;2.13;;
2023;SDS011;1016;48.770;9.154;2023-03-21T08:54:51;17.90;;;2.10;;
2023;SDS011;1016;48.770;9.154;2023-03-21T08:57:16;19.73;;;3.00;;
2023;SDS011;1016;48.770;9.154;2023-03-21T08:59:42;20.50;;;2.80;;
2023;SDS011;1016;48.770;9.154;2023-03-21T09:02:08;18.63;;;2.43;;
2023;SDS011;1016;48.770;9.154;2023-03-21T09:04:37;18.13;;;2.43;;
2023;SDS011;1016;48.770;9.154;2023-03-21T09:07:03;18.60;;;2.20;;
2023;SDS011;1016;48.770;9.154;2023-03-21T09:09:29;19.63;;;2.00;;
2023;SDS011;1016;48.770;9.154;2023-03-21T09:11:55;24.40;;;2.50;;
2023;SDS011;1016;48.770;9.154;2023-03-21T09:14:20;19.07;;;2.07;;
2023;SDS011;1016;48.770;9.154;2023-03-21T09:16:46;18.77;;;2.07;;
2023;SDS011;1016;48.770;9.154;2023-03-21T09:19:12;18.40;;;2.20;;
2023;SDS011;1016;48.770;9.154;2023-03-21T09:21:37;20.40;;;2.70;;
2023;SDS011;1016;48.770;9.154;2023-03-21T09:24:03;18.30;;;2.10;;
2023;SDS011;1016;48.770;9.154;2023-03-21T09:26:30;18.57;;;2.07;;
2023;SDS011;1016;48.770;9.154;2023-03-21T09:28:56;17.40;;;1.90;;
2023;SDS011;1016;48.770;9.154;2023-03-21T09:31:22;18.37;;;1.97;;
2023;SDS011;1016;48.770;9.154;2023-03-21T09:33:49;18.07;;;1.80;;
2023;SDS011;1016;48.770;9.154;2023-03-21T09:36:16;18.87;;;2.40;;
2023;SDS011;1016;48.770;9.154;2023-03-21T09:38:45;19.23;;;2.10;;
2023;SDS011;1016;48.770;9.154;2023-03-21T09:43:43;17.00;;;1.87;;
2023;SDS011;1016;48.770;9.154;2023-03-21T09:46:35;18.33;;;1.70;;
2023;SDS011;1016;48.770;9.154;2023-03-21T09:49:17;18.77;;;1.90;;
2023;SDS011;1016;48.770;9.154;2023-03-21T09:51:46;17.90;;;2.00;;
2023;SDS011;1016;48.770;9.154;2023-03-21T09:54:25;17.57;;;1.80;;
2023;SDS011;1016;48.770;9.154;2023-03-21T09:56:58;17.40;;;1.97;;
2023;SDS011;1016;48.770;9.154;2023-03-21T09:59:33;18.07;;;2.00;;
2023;SDS011;1016;48.770;9.154;2023-03-21T10:02:17;17.00;;;1.43;;
2023;SDS011;1016;48.770;9.154;2023-03-21T10:04:44;18.10;;;2.63;;
2023;SDS011;1016;48.770;9.154;2023-03-21T10:07:10;17.63;;;1.67;;
2023;SDS011;1016;48.770;9.154;2023-03-21T10:09:44;18.20;;;1.60;;
2023;SDS011;1016;48.770;9.154;2023-03-21T10:12:29;17.07;;;1.53;;
2023;SDS011;1016;48.770;9.154;2023-03-21T10:14:55;16.70;;;1.50;;
2023;SDS011;1016;48.770;9.154;2023-03-21T10:20:15;17.30;;;1.73;;
2023;SDS011;1016;48.770;9.154;2023-03-21T10:22:50;18.43;;;1.90;;
2023;SDS011;1016;48.770;9.154;2023-03-21T10:25:18;17.80;;;1.63;;
2023;SDS011;1016;48.770;9.154;2023-03-21T10:27:48;17.37;;;1.83;;
2023;SDS011;1016;48.770;9.154;2023-03-21T10:33:32;17.67;;;1.70;;
2023;SDS011;1016;48.770;9.154;2023-03-21T10:36:08;17.87;;;2.30;;
2023;SDS011;1016;48.770;9.154;2023-03-21T10:38:39;17.17;;;1.57;;
2023;SDS011;1016;48.770;9.154;2023-03-21T10:41:10;17.50;;;2.00;;
2023;SDS011;1016;48.770;9.154;2023-03-21T10:43:36;16.83;;;1.80;;
2023;SDS011;1016;48.770;9.154;2023-03-21T10:46:18;17.23;;;1.87;;
2023;SDS011;1016;48.770;9.154;2023-03-21T10:48:46;17.20;;;1.90;;
2023;SDS011;1016;48.770;9.154;2023-03-21T10:51:20;18.23;;;2.07;;
2023;SDS011;1016;48.770;9.154;2023-03-21T10:53:50;17.50;;;2.20;;
2023;SDS011;1016;48.770;9.154;2023-03-21T10:56:22;19.00;;;1.73;;
2023;SDS011;1016;48.770;9.154;2023-03-21T10:58:52;17.33;;;2.20;;
2023;SDS011;1016;48.770;9.154;2023-03-21T11:01:28;18.57;;;1.87;;
2023;SDS011;1016;48.770;9.154;2023-03-21T11:04:24;17.70;;;1.70;;
2023;SDS011;1016;48.770;9.154;2023-03-21T11:06:53;17.10;;;1.70;;
2023;SDS011;1016;48.770;9.154;2023-03-21T11:09:24;16.30;;;1.37;;
2023;SDS011;1016;48.770;9.154;2023-03-21T11:12:10;18.27;;;2.20;;
2023;SDS011;1016;48.770;9.154;2023-03-21T11:14:39;17.73;;;1.80;;
2023;SDS011;1016;48.770;9.154;2023-03-21T11:19:48;17.50;;;1.70;;
2023;SDS011;1016;48.770;9.154;2023-03-21T11:22:36;16.57;;;1.40;;
2023;SDS011;1016;48.770;9.154;2023-03-21T11:25:06;16.40;;;1.43;;
2023;SDS011;1016;48.770;9.154;2023-03-21T11:27:36;18.47;;;1.80;;
2023;SDS011;1016;48.770;9.154;2023-03-21T11:30:20;16.83;;;1.30;;
2023;SDS011;1016;48.770;9.154;2023-03-21T11:32:50;16.90;;;1.60;;
2023;SDS011;1016;48.770;9.154;2023-03-21T11:35:21;18.07;;;1.93;;
2023;SDS011;1016;48.770;9.154;2023-03-21T11:37:53;16.93;;;1.60;;
2023;SDS011;1016;48.770;9.154;2023-03-21T11:45:24;16.70;;;1.30;;
2023;SDS011;1016;48.770;9.154;2023-03-21T11:47:58;17.93;;;1.47;;
2023;SDS011;1016;48.770;9.154;2023-03-21T11:50:27;17.10;;;1.40;;
2023;SDS011;1016;48.770;9.154;2023-03-21T11:56:07;16.67;;;1.40;;
2023;SDS011;1016;48.770;9.154;2023-03-21T12:01:33;16.90;;;1.37;;
2023;SDS011;1016;48.770;9.154;2023-03-21T12:07:11;16.70;;;1.33;;
2023;SDS011;1016;48.770;9.154;2023-03-21T12:12:32;17.10;;;1.30;;
2023;SDS011;1016;48.770;9.154;2023-03-21T12:15:09;16.47;;;1.20;;
2023;SDS011;1016;48.770;9.154;2023-03-21T12:17:58;16.03;;;1.20;;
2023;SDS011;1016;48.770;9.154;2023-03-21T12:23:15;17.17;;;1.60;;
2023;SDS011;1016;48.770;9.154;2023-03-21T12:25:57;16.70;;;1.50;;
2023;SDS011;1016;48.770;9.154;2023-03-21T12:28:48;18.47;;;1.33;;
2023;SDS011;1016;48.770;9.154;2023-03-21T12:33:56;17.70;;;1.60;;
2023;SDS011;1016;48.770;9.154;2023-03-21T12:36:36;16.90;;;1.60;;
2023;SDS011;1016;48.770;9.154;2023-03-21T12:44:44;16.80;;;1.00;;
2023;SDS011;1016;48.770;9.154;2023-03-21T12:47:25;17.80;;;1.57;;
2023;SDS011;1016;48.770;9.154;2023-03-21T12:53:00;17.80;;;1.40;;
2023;SDS011;1016;48.770;9.154;2023-03-21T12:55:48;17.17;;;1.70;;
2023;SDS011;1016;48.770;9.154;2023-03-21T12:58:15;17.37;;;1.80;;
2023;SDS011;1016;48.770;9.154;2023-03-21T13:00:55;16.73;;;1.60;;
2023;SDS011;1016;48.770;9.154;2023-03-21T13:06:08;17.00;;;1.60;;
2023;SDS011;1016;48.770;9.154;2023-03-21T13:08:38;16.67;;;1.50;;
2023;SDS011;1016;48.770;9.154;2023-03-21T13:11:07;19.80;;;3.00;;
2023;SDS011;1016;48.770;9.154;2023-03-21T13:13:38;18.00;;;1.53;;
2023;SDS011;1016;48.770;9.154;2023-03-21T13:19:09;17.60;;;2.40;;
2023;SDS011;1016;48.770;9.154;2023-03-21T13:21:47;17.50;;;1.97;;
2023;SDS011;1016;48.770;9.154;2023-03-21T13:27:05;15.93;;;1.30;;
2023;SDS011;1016;48.770;9.154;2023-03-21T13:32:15;17.10;;;1.57;;
2023;SDS011;1016;48.770;9.154;2023-03-21T13:35:02;16.30;;;1.43;;
2023;SDS011;1016;48.770;9.154;2023-03-21T13:37:37;16.30;;;1.50;;
2023;SDS011;1016;48.770;9.154;2023-03-21T13:40:07;16.27;;;1.40;;
2023;SDS011;1016;48.770;9.154;2023-03-21T13:42:49;16.70;;;1.50;;
2023;SDS011;1016;48.770;9.154;2023-03-21T13:45:22;18.93;;;1.57;;
2023;SDS011;1016;48.770;9.154;2023-03-21T13:47:57;16.53;;;1.67;;
2023;SDS011;1016;48.770;9.154;2023-03-21T13:50:29;16.63;;;1.50;;
2023;SDS011;1016;48.770;9.154;2023-03-21T13:55:26;16.40;;;1.47;;
2023;SDS011;1016;48.770;9.154;2023-03-21T13:57:54;16.87;;;1.37;;
2023;SDS011;1016;48.770;9.154;2023-03-21T14:00:21;17.30;;;1.60;;
2023;SDS011;1016;48.770;9.154;2023-03-21T14:02:55;17.00;;;1.37;;
2023;SDS011;1016;48.770;9.154;2023-03-21T14:05:29;20.27;;;2.30;;
2023;SDS011;1016;48.770;9.154;2023-03-21T14:10:53;16.90;;;1.60;;
2023;SDS011;1016;48.770;9.154;2023-03-21T14:13:22;20.00;;;2.50;;
2023;SDS011;1016;48.770;9.154;2023-03-21T14:15:55;27.57;;;3.33;;
2023;SDS011;1016;48.770;9.154;2023-03-21T14:18:25;19.40;;;2.80;;
2023;SDS011;1016;48.770;9.154;2023-03-21T14:20:53;18.40;;;2.40;;
2023;SDS011;1016;48.770;9.154;2023-03-21T14:23:21;18.00;;;2.40;;
2023;SDS011;1016;48.770;9.154;2023-03-21T14:25:48;18.77;;;2.33;;
2023;SDS011;1016;48.770;9.154;2023-03-21T14:28:16;16.93;;;2.00;;
2023;SDS011;1016;48.770;9.154;2023-03-21T14:30:44;18.47;;;2.10;;
2023;SDS011;1016;48.770;9.154;2023-03-21T14:33:16;17.63;;;2.30;;
2023;SDS011;1016;48.770;9.154;2023-03-21T14:35:50;18.00;;;2.20;;
2023;SDS011;1016;48.770;9.154;2023-03-21T14:38:20;17.00;;;2.00;;
2023;SDS011;1016;48.770;9.154;2023-03-21T14:40:49;17.53;;;2.30;;
2023;SDS011;1016;48.770;9.154;2023-03-21T14:43:20;20.40;;;3.07;;
2023;SDS011;1016;48.770;9.154;2023-03-21T14:45:48;18.27;;;2.83;;
2023;SDS011;1016;48.770;9.154;2023-03-21T14:48:19;22.13;;;2.33;;
2023;SDS011;1016;48.770;9.154;2023-03-21T14:50:52;17.50;;;2.30;;
2023;SDS011;1016;48.770;9.154;2023-03-21T14:53:21;17.70;;;2.47;;
2023;SDS011;1016;48.770;9.154;2023-03-21T14:55:53;18.40;;;2.60;;
2023;SDS011;1016;48.770;9.154;2023-03-21T14:58:21;22.57;;;3.10;;
2023;SDS011;1016;48.770;9.154;2023-03-21T15:00:48;18.23;;;3.20;;
2023;SDS011;1016;48.770;9.154;2023-03-21T15:03:15;19.57;;;2.70;;
2023;SDS011;1016;48.770;9.154;2023-03-21T15:05:42;18.57;;;3.00;;
2023;SDS011;1016;48.770;9.154;2023-03-21T15:08:13;19.50;;;2.80;;
2023;SDS011;1016;48.770;9.154;2023-03-21T15:10:41;20.60;;;3.00;;
2023;SDS011;1016;48.770;9.154;2023-03-21T15:13:18;18.30;;;2.70;;
2023;SDS011;1016;48.770;9.154;2023-03-21T15:15:47;19.10;;;3.23;;
2023;SDS011;1016;48.770;9.154;2023-03-21T15:18:17;20.20;;;3.50;;
2023;SDS011;1016;48.770;9.154;2023-03-21T15:20:52;18.73;;;2.87;;
2023;SDS011;1016;48.770;9.154;2023-03-21T15:23:25;19.57;;;3.07;;
2023;SDS011;1016;48.770;9.154;2023-03-21T15:25:52;19.50;;;3.00;;
2023;SDS011;1016;48.770;9.154;2023-03-21T15:28:18;18.80;;;2.60;;
2023;SDS011;1016;48.770;9.154;2023-03-21T15:30:47;19.20;;;2.73;;
2023;SDS011;1016;48.770;9.154;2023-03-21T15:33:14;19.03;;;3.13;;
2023;SDS011;1016;48.770;9.154;2023-03-21T15:35:42;22.03;;;3.30;;
2023;SDS011;1016;48.770;9.154;2023-03-21T15:40:46;19.20;;;2.70;;
2023;SDS011;1016;48.770;9.154;2023-03-21T15:43:15;18.53;;;2.70;;
2023;SDS011;1016;48.770;9.154;2023-03-21T15:48:13;19.80;;;3.30;;
2023;SDS011;1016;48.770;9.154;2023-03-21T15:50:39;18.90;;;3.20;;
2023;SDS011;1016;48.770;9.154;2023-03-21T15:53:12;18.23;;;2.70;;
2023;SDS011;1016;48.770;9.154;2023-03-21T15:55:44;18.70;;;2.90;;
2023;SDS011;1016;48.770;9.154;2023-03-21T15:58:24;21.80;;;3.67;;
2023;SDS011;1016;48.770;9.154;2023-03-21T16:00:53;18.40;;;2.80;;
2023;SDS011;1016;48.770;9.154;2023-03-21T16:03:23;19.33;;;2.80;;
2023;SDS011;1016;48.770;9.154;2023-03-21T16:08:44;17.80;;;2.67;;
2023;SDS011;1016;48.770;9.154;2023-03-21T16:11:16;19.40;;;2.80;;
2023;SDS011;1016;48.770;9.154;2023-03-21T16:13:49;19.60;;;3.33;;
2023;SDS011;1016;48.770;9.154;2023-03-21T16:16:22;21.50;;;3.70;;
2023;SDS011;1016;48.770;9.154;2023-03-21T16:18:49;23.30;;;4.00;;
2023;SDS011;1016;48.770;9.154;2023-03-21T16:21:17;20.30;;;3.40;;
2023;SDS011;1016;48.770;9.154;2023-03-21T16:23:45;21.03;;;3.13;;
2023;SDS011;1016;48.770;9.154;2023-03-21T16:26:13;17.80;;;3.07;;
2023;SDS011;1016;48.770;9.154;2023-03-21T16:28:49;19.07;;;3.77;;
2023;SDS011;1016;48.770;9.154;2023-03-21T16:31:17;23.90;;;3.70;;
2023;SDS011;1016;48.770;9.154;2023-03-21T16:33:44;19.80;;;3.50;;
2023;SDS011;1016;48.770;9.154;2023-03-21T16:36:14;21.40;;;3.90;;
2023;SDS011;1016;48.770;9.154;2023-03-21T16:38:42;20.70;;;4.00;;
2023;SDS011;1016;48.770;9.154;2023-03-21T16:41:13;20.17;;;3.23;;
2023;SDS011;1016;48.770;9.154;2023-03-21T16:43:39;18.80;;;3.30;;
2023;SDS011;1016;48.770;9.154;2023-03-21T16:46:13;25.40;;;3.40;;
2023;SDS011;1016;48.770;9.154;2023-03-21T16:48:40;19.40;;;3.80;;
2023;SDS011;1016;48.770;9.154;2023-03-21T16:51:11;24.50;;;4.07;;